sensor_id;sensor_type;location;lat;lon;timestamp;P1;durP1;ratioP1;P2;durP2;ratioP2
78346;SDS011;67803;41.330;69.282;2023-07-30T00:02:11;17.02;;;7.97;;
78346;SDS011;67803;41.330;69.282;2023-07-30T00:04:42;22.00;;;7.68;;
78346;SDS011;67803;41.330;69.282;2023-07-30T00:07:12;25.10;;;7.95;;
78346;SDS011;67803;41.330;69.282;2023-07-30T00:09:43;16.67;;;7.65;;
78346;SDS011;67803;41.330;69.282;2023-07-30T00:12:13;25.58;;;7.97;;
78346;SDS011;67803;41.330;69.282;2023-07-30T00:14:44;14.77;;;7.43;;
78346;SDS011;67803;41.330;69.282;2023-07-30T00:17:14;21.40;;;7.97;;
78346;SDS011;67803;41.330;69.282;2023-07-30T00:19:45;22.70;;;7.68;;
78346;SDS011;67803;41.330;69.282;2023-07-30T00:22:15;20.77;;;7.70;;
78346;SDS011;67803;41.330;69.282;2023-07-30T00:24:46;18.33;;;7.90;;
78346;SDS011;67803;41.330;69.282;2023-07-30T00:27:16;19.55;;;7.50;;
78346;SDS011;67803;41.330;69.282;2023-07-30T00:29:47;19.88;;;8.48;;
78346;SDS011;67803;41.330;69.282;2023-07-30T00:32:17;20.02;;;7.40;;
78346;SDS011;67803;41.330;69.282;2023-07-30T00:34:48;18.33;;;8.50;;
78346;SDS011;67803;41.330;69.282;2023-07-30T00:37:18;18.20;;;8.20;;
78346;SDS011;67803;41.330;69.282;2023-07-30T00:39:49;20.23;;;8.70;;
78346;SDS011;67803;41.330;69.282;2023-07-30T00:42:19;20.60;;;8.05;;
78346;SDS011;67803;41.330;69.282;2023-07-30T00:44:50;23.83;;;7.85;;
78346;SDS011;67803;41.330;69.282;2023-07-30T00:47:20;20.90;;;7.82;;
78346;SDS011;67803;41.330;69.282;2023-07-30T00:49:51;24.25;;;8.65;;
78346;SDS011;67803;41.330;69.282;2023-07-30T00:52:23;14.32;;;7.28;;
78346;SDS011;67803;41.330;69.282;2023-07-30T00:54:54;19.25;;;7.95;;
78346;SDS011;67803;41.330;69.282;2023-07-30T00:57:25;19.83;;;7.43;;
78346;SDS011;67803;41.330;69.282;2023-07-30T00:59:56;23.48;;;7.78;;
78346;SDS011;67803;41.330;69.282;2023-07-30T01:02:27;19.65;;;7.03;;
78346;SDS011;67803;41.330;69.282;2023-07-30T01:04:58;19.38;;;7.47;;
78346;SDS011;67803;41.330;69.282;2023-07-30T01:07:30;19.98;;;7.40;;
78346;SDS011;67803;41.330;69.282;2023-07-30T01:10:01;16.63;;;6.75;;
78346;SDS011;67803;41.330;69.282;2023-07-30T01:12:32;15.52;;;7.25;;
78346;SDS011;67803;41.330;69.282;2023-07-30T01:15:03;17.35;;;6.75;;
78346;SDS011;67803;41.330;69.282;2023-07-30T01:17:34;16.42;;;6.78;;
78346;SDS011;67803;41.330;69.282;2023-07-30T01:20:05;22.42;;;7.60;;
78346;SDS011;67803;41.330;69.282;2023-07-30T01:22:36;20.20;;;7.63;;
78346;SDS011;67803;41.330;69.282;2023-07-30T01:25:06;16.23;;;7.40;;
78346;SDS011;67803;41.330;69.282;2023-07-30T01:27:38;22.77;;;7.70;;
78346;SDS011;67803;41.330;69.282;2023-07-30T01:30:25;19.48;;;8.38;;
78346;SDS011;67803;41.330;69.282;2023-07-30T01:35:27;19.90;;;8.63;;
78346;SDS011;67803;41.330;69.282;2023-07-30T01:37:58;24.25;;;8.32;;
78346;SDS011;67803;41.330;69.282;2023-07-30T01:40:28;27.92;;;9.35;;
78346;SDS011;67803;41.330;69.282;2023-07-30T01:42:59;24.50;;;8.77;;
78346;SDS011;67803;41.330;69.282;2023-07-30T01:45:30;24.15;;;9.10;;
78346;SDS011;67803;41.330;69.282;2023-07-30T01:48:00;25.50;;;9.20;;
78346;SDS011;67803;41.330;69.282;2023-07-30T01:50:31;18.70;;;7.82;;
78346;SDS011;67803;41.330;69.282;2023-07-30T01:53:01;24.92;;;8.93;;
78346;SDS011;67803;41.330;69.282;2023-07-30T01:55:31;25.70;;;8.60;;
78346;SDS011;67803;41.330;69.282;2023-07-30T01:58:02;18.70;;;8.70;;
78346;SDS011;67803;41.330;69.282;2023-07-30T02:00:33;23.13;;;8.52;;
78346;SDS011;67803;41.330;69.282;2023-07-30T02:03:03;21.20;;;8.50;;
78346;SDS011;67803;41.330;69.282;2023-07-30T02:05:34;23.13;;;8.55;;
78346;SDS011;67803;41.330;69.282;2023-07-30T02:08:04;19.70;;;8.13;;
78346;SDS011;67803;41.330;69.282;2023-07-30T02:10:35;17.33;;;8.27;;
78346;SDS011;67803;41.330;69.282;2023-07-30T02:13:05;22.15;;;8.35;;
78346;SDS011;67803;41.330;69.282;2023-07-30T02:15:39;25.80;;;8.07;;
78346;SDS011;67803;41.330;69.282;2023-07-30T02:20:40;20.92;;;8.43;;
78346;SDS011;67803;41.330;69.282;2023-07-30T02:23:13;21.00;;;8.15;;
78346;SDS011;67803;41.330;69.282;2023-07-30T02:25:43;23.00;;;7.13;;
78346;SDS011;67803;41.330;69.282;2023-07-30T02:28:14;17.20;;;7.10;;
78346;SDS011;67803;41.330;69.282;2023-07-30T02:30:44;23.17;;;7.47;;
78346;SDS011;67803;41.330;69.282;2023-07-30T02:33:15;18.10;;;6.72;;
78346;SDS011;67803;41.330;69.282;2023-07-30T02:35:45;19.35;;;7.43;;
78346;SDS011;67803;41.330;69.282;2023-07-30T02:38:16;21.73;;;7.05;;
78346;SDS011;67803;41.330;69.282;2023-07-30T02:40:46;26.15;;;7.90;;
78346;SDS011;67803;41.330;69.282;2023-07-30T02:43:16;23.88;;;7.53;;
78346;SDS011;67803;41.330;69.282;2023-07-30T02:45:47;19.45;;;7.68;;
78346;SDS011;67803;41.330;69.282;2023-07-30T02:48:18;22.90;;;7.90;;
78346;SDS011;67803;41.330;69.282;2023-07-30T02:50:48;21.38;;;7.72;;
78346;SDS011;67803;41.330;69.282;2023-07-30T02:53:19;21.17;;;7.25;;
78346;SDS011;67803;41.330;69.282;2023-07-30T02:55:49;22.15;;;7.53;;
78346;SDS011;67803;41.330;69.282;2023-07-30T02:58:20;20.38;;;7.05;;
78346;SDS011;67803;41.330;69.282;2023-07-30T03:00:50;20.42;;;7.78;;
78346;SDS011;67803;41.330;69.282;2023-07-30T03:03:21;23.45;;;7.88;;
78346;SDS011;67803;41.330;69.282;2023-07-30T03:05:51;23.48;;;8.05;;
78346;SDS011;67803;41.330;69.282;2023-07-30T03:08:22;20.33;;;7.20;;
78346;SDS011;67803;41.330;69.282;2023-07-30T03:10:52;23.23;;;7.10;;
78346;SDS011;67803;41.330;69.282;2023-07-30T03:13:23;23.80;;;7.05;;
78346;SDS011;67803;41.330;69.282;2023-07-30T03:15:53;23.80;;;7.93;;
78346;SDS011;67803;41.330;69.282;2023-07-30T03:18:24;19.70;;;7.68;;
78346;SDS011;67803;41.330;69.282;2023-07-30T03:20:58;23.33;;;8.90;;
78346;SDS011;67803;41.330;69.282;2023-07-30T03:23:29;22.65;;;7.57;;
78346;SDS011;67803;41.330;69.282;2023-07-30T03:26:00;19.38;;;7.53;;
78346;SDS011;67803;41.330;69.282;2023-07-30T03:28:30;20.02;;;6.93;;
78346;SDS011;67803;41.330;69.282;2023-07-30T03:31:01;19.85;;;7.15;;
78346;SDS011;67803;41.330;69.282;2023-07-30T03:33:31;18.02;;;6.88;;
78346;SDS011;67803;41.330;69.282;2023-07-30T03:36:02;20.52;;;7.55;;
78346;SDS011;67803;41.330;69.282;2023-07-30T03:38:32;20.17;;;6.80;;
78346;SDS011;67803;41.330;69.282;2023-07-30T03:41:04;17.23;;;6.88;;
78346;SDS011;67803;41.330;69.282;2023-07-30T03:43:34;24.55;;;7.50;;
78346;SDS011;67803;41.330;69.282;2023-07-30T03:46:05;18.52;;;6.82;;
78346;SDS011;67803;41.330;69.282;2023-07-30T03:48:35;19.67;;;6.68;;
78346;SDS011;67803;41.330;69.282;2023-07-30T03:51:06;19.73;;;6.63;;
78346;SDS011;67803;41.330;69.282;2023-07-30T03:53:37;18.55;;;6.75;;
78346;SDS011;67803;41.330;69.282;2023-07-30T03:56:08;19.50;;;6.68;;
78346;SDS011;67803;41.330;69.282;2023-07-30T03:58:38;18.33;;;7.03;;
78346;SDS011;67803;41.330;69.282;2023-07-30T04:01:09;20.77;;;6.65;;
78346;SDS011;67803;41.330;69.282;2023-07-30T04:03:39;20.13;;;7.40;;
78346;SDS011;67803;41.330;69.282;2023-07-30T04:06:10;27.75;;;6.93;;
78346;SDS011;67803;41.330;69.282;2023-07-30T04:08:40;21.38;;;7.25;;
78346;SDS011;67803;41.330;69.282;2023-07-30T04:11:11;20.95;;;6.82;;
78346;SDS011;67803;41.330;69.282;2023-07-30T04:13:41;19.10;;;6.63;;
78346;SDS011;67803;41.330;69.282;2023-07-30T04:16:12;19.15;;;6.68;;
78346;SDS011;67803;41.330;69.282;2023-07-30T04:18:42;23.38;;;7.15;;
78346;SDS011;67803;41.330;69.282;2023-07-30T04:21:13;26.08;;;7.20;;
78346;SDS011;67803;41.330;69.282;2023-07-30T04:23:43;22.17;;;7.45;;
78346;SDS011;67803;41.330;69.282;2023-07-30T04:26:14;12.70;;;6.15;;
78346;SDS011;67803;41.330;69.282;2023-07-30T04:28:44;19.33;;;6.78;;
78346;SDS011;67803;41.330;69.282;2023-07-30T04:31:15;26.58;;;7.05;;
78346;SDS011;67803;41.330;69.282;2023-07-30T04:33:45;18.83;;;6.55;;
78346;SDS011;67803;41.330;69.282;2023-07-30T04:36:16;32.03;;;8.50;;
78346;SDS011;67803;41.330;69.282;2023-07-30T04:38:46;28.52;;;8.30;;
78346;SDS011;67803;41.330;69.282;2023-07-30T04:41:17;22.27;;;8.02;;
78346;SDS011;67803;41.330;69.282;2023-07-30T04:43:48;27.10;;;7.68;;
78346;SDS011;67803;41.330;69.282;2023-07-30T04:46:19;27.15;;;8.93;;
78346;SDS011;67803;41.330;69.282;2023-07-30T04:48:49;19.85;;;8.02;;
78346;SDS011;67803;41.330;69.282;2023-07-30T04:51:20;21.02;;;9.38;;
78346;SDS011;67803;41.330;69.282;2023-07-30T04:53:50;25.17;;;8.43;;
78346;SDS011;67803;41.330;69.282;2023-07-30T04:56:21;22.90;;;7.93;;
78346;SDS011;67803;41.330;69.282;2023-07-30T04:58:51;19.40;;;7.10;;
78346;SDS011;67803;41.330;69.282;2023-07-30T05:01:23;21.70;;;6.65;;
78346;SDS011;67803;41.330;69.282;2023-07-30T05:03:54;16.48;;;6.10;;
78346;SDS011;67803;41.330;69.282;2023-07-30T05:06:24;21.73;;;7.15;;
78346;SDS011;67803;41.330;69.282;2023-07-30T05:08:55;18.60;;;5.82;;
78346;SDS011;67803;41.330;69.282;2023-07-30T05:11:25;17.80;;;5.88;;
78346;SDS011;67803;41.330;69.282;2023-07-30T05:13:56;14.15;;;5.63;;
78346;SDS011;67803;41.330;69.282;2023-07-30T05:16:26;16.02;;;5.97;;
78346;SDS011;67803;41.330;69.282;2023-07-30T05:18:57;25.08;;;5.97;;
78346;SDS011;67803;41.330;69.282;2023-07-30T05:21:27;18.15;;;5.85;;
78346;SDS011;67803;41.330;69.282;2023-07-30T05:23:57;21.92;;;6.65;;
78346;SDS011;67803;41.330;69.282;2023-07-30T05:26:28;17.05;;;4.97;;
78346;SDS011;67803;41.330;69.282;2023-07-30T05:28:58;20.98;;;5.30;;
78346;SDS011;67803;41.330;69.282;2023-07-30T05:31:29;25.10;;;6.22;;
78346;SDS011;67803;41.330;69.282;2023-07-30T05:34:00;20.67;;;5.70;;
78346;SDS011;67803;41.330;69.282;2023-07-30T05:36:30;16.38;;;5.53;;
78346;SDS011;67803;41.330;69.282;2023-07-30T05:39:02;19.88;;;5.38;;
78346;SDS011;67803;41.330;69.282;2023-07-30T05:41:33;12.68;;;4.97;;
78346;SDS011;67803;41.330;69.282;2023-07-30T05:44:03;18.50;;;5.72;;
78346;SDS011;67803;41.330;69.282;2023-07-30T05:46:33;15.68;;;5.60;;
78346;SDS011;67803;41.330;69.282;2023-07-30T05:49:04;19.67;;;4.75;;
78346;SDS011;67803;41.330;69.282;2023-07-30T05:51:35;17.90;;;5.30;;
78346;SDS011;67803;41.330;69.282;2023-07-30T05:54:05;18.75;;;4.90;;
78346;SDS011;67803;41.330;69.282;2023-07-30T05:56:36;16.27;;;5.20;;
78346;SDS011;67803;41.330;69.282;2023-07-30T05:59:06;17.17;;;4.45;;
78346;SDS011;67803;41.330;69.282;2023-07-30T06:01:37;15.18;;;4.75;;
78346;SDS011;67803;41.330;69.282;2023-07-30T06:04:07;17.98;;;4.88;;
78346;SDS011;67803;41.330;69.282;2023-07-30T06:06:38;14.95;;;4.57;;
78346;SDS011;67803;41.330;69.282;2023-07-30T06:09:08;14.38;;;3.83;;
78346;SDS011;67803;41.330;69.282;2023-07-30T06:11:39;12.93;;;4.30;;
78346;SDS011;67803;41.330;69.282;2023-07-30T06:14:09;14.52;;;4.80;;
78346;SDS011;67803;41.330;69.282;2023-07-30T06:16:40;14.95;;;5.97;;
78346;SDS011;67803;41.330;69.282;2023-07-30T06:19:10;13.77;;;4.38;;
78346;SDS011;67803;41.330;69.282;2023-07-30T06:21:41;11.43;;;4.03;;
78346;SDS011;67803;41.330;69.282;2023-07-30T06:24:11;36.20;;;5.40;;
78346;SDS011;67803;41.330;69.282;2023-07-30T06:26:42;19.95;;;4.93;;
78346;SDS011;67803;41.330;69.282;2023-07-30T06:29:13;13.75;;;4.40;;
78346;SDS011;67803;41.330;69.282;2023-07-30T06:31:43;13.43;;;4.40;;
78346;SDS011;67803;41.330;69.282;2023-07-30T06:34:13;11.90;;;3.95;;
78346;SDS011;67803;41.330;69.282;2023-07-30T06:36:44;12.50;;;3.85;;
78346;SDS011;67803;41.330;69.282;2023-07-30T06:39:14;12.02;;;3.70;;
78346;SDS011;67803;41.330;69.282;2023-07-30T06:41:45;10.43;;;4.20;;
78346;SDS011;67803;41.330;69.282;2023-07-30T06:44:16;10.88;;;4.10;;
78346;SDS011;67803;41.330;69.282;2023-07-30T06:46:46;9.50;;;3.78;;
78346;SDS011;67803;41.330;69.282;2023-07-30T06:49:17;9.60;;;3.85;;
78346;SDS011;67803;41.330;69.282;2023-07-30T06:51:47;9.55;;;3.53;;
78346;SDS011;67803;41.330;69.282;2023-07-30T06:54:17;17.92;;;3.13;;
78346;SDS011;67803;41.330;69.282;2023-07-30T06:56:48;18.83;;;3.95;;
78346;SDS011;67803;41.330;69.282;2023-07-30T06:59:18;14.82;;;3.75;;
78346;SDS011;67803;41.330;69.282;2023-07-30T07:01:49;13.55;;;3.47;;
78346;SDS011;67803;41.330;69.282;2023-07-30T07:04:19;11.32;;;3.70;;
78346;SDS011;67803;41.330;69.282;2023-07-30T07:06:50;13.10;;;3.42;;
78346;SDS011;67803;41.330;69.282;2023-07-30T07:09:20;10.27;;;3.13;;
78346;SDS011;67803;41.330;69.282;2023-07-30T07:11:51;7.75;;;3.30;;
78346;SDS011;67803;41.330;69.282;2023-07-30T07:14:21;9.38;;;3.05;;
78346;SDS011;67803;41.330;69.282;2023-07-30T07:16:52;8.75;;;3.25;;
78346;SDS011;67803;41.330;69.282;2023-07-30T07:19:22;10.68;;;3.85;;
78346;SDS011;67803;41.330;69.282;2023-07-30T07:21:53;10.82;;;3.35;;
78346;SDS011;67803;41.330;69.282;2023-07-30T07:24:23;12.52;;;3.13;;
78346;SDS011;67803;41.330;69.282;2023-07-30T07:26:54;12.02;;;3.72;;
78346;SDS011;67803;41.330;69.282;2023-07-30T07:29:24;8.38;;;3.50;;
78346;SDS011;67803;41.330;69.282;2023-07-30T07:31:55;9.70;;;3.40;;
78346;SDS011;67803;41.330;69.282;2023-07-30T07:34:25;8.68;;;3.50;;
78346;SDS011;67803;41.330;69.282;2023-07-30T07:36:55;13.38;;;3.95;;
78346;SDS011;67803;41.330;69.282;2023-07-30T07:39:26;12.20;;;3.65;;
78346;SDS011;67803;41.330;69.282;2023-07-30T07:41:56;13.05;;;3.83;;
78346;SDS011;67803;41.330;69.282;2023-07-30T07:44:27;7.65;;;3.15;;
78346;SDS011;67803;41.330;69.282;2023-07-30T07:46:57;8.65;;;3.90;;
78346;SDS011;67803;41.330;69.282;2023-07-30T07:49:28;17.88;;;3.83;;
78346;SDS011;67803;41.330;69.282;2023-07-30T07:51:58;11.18;;;3.70;;
78346;SDS011;67803;41.330;69.282;2023-07-30T07:54:29;14.10;;;3.80;;
78346;SDS011;67803;41.330;69.282;2023-07-30T07:56:59;10.45;;;3.70;;
78346;SDS011;67803;41.330;69.282;2023-07-30T07:59:30;8.70;;;4.10;;
78346;SDS011;67803;41.330;69.282;2023-07-30T08:02:00;12.60;;;3.65;;
78346;SDS011;67803;41.330;69.282;2023-07-30T08:04:31;8.98;;;3.28;;
78346;SDS011;67803;41.330;69.282;2023-07-30T08:07:01;11.77;;;3.55;;
78346;SDS011;67803;41.330;69.282;2023-07-30T08:09:33;12.52;;;3.40;;
78346;SDS011;67803;41.330;69.282;2023-07-30T08:12:04;11.18;;;3.25;;
78346;SDS011;67803;41.330;69.282;2023-07-30T08:14:34;4.72;;;2.58;;
78346;SDS011;67803;41.330;69.282;2023-07-30T08:17:05;7.93;;;2.70;;
78346;SDS011;67803;41.330;69.282;2023-07-30T08:19:35;13.60;;;3.20;;
78346;SDS011;67803;41.330;69.282;2023-07-30T08:22:06;9.07;;;3.80;;
78346;SDS011;67803;41.330;69.282;2023-07-30T08:24:36;8.63;;;3.10;;
78346;SDS011;67803;41.330;69.282;2023-07-30T08:27:07;10.05;;;2.92;;
78346;SDS011;67803;41.330;69.282;2023-07-30T08:29:37;11.27;;;3.10;;
78346;SDS011;67803;41.330;69.282;2023-07-30T08:32:08;9.65;;;2.88;;
78346;SDS011;67803;41.330;69.282;2023-07-30T08:34:38;7.72;;;2.95;;
78346;SDS011;67803;41.330;69.282;2023-07-30T08:37:09;6.00;;;2.25;;
78346;SDS011;67803;41.330;69.282;2023-07-30T08:39:39;6.72;;;2.38;;
78346;SDS011;67803;41.330;69.282;2023-07-30T08:42:09;5.80;;;2.55;;
78346;SDS011;67803;41.330;69.282;2023-07-30T08:44:40;6.50;;;3.08;;
78346;SDS011;67803;41.330;69.282;2023-07-30T08:47:11;6.85;;;2.70;;
78346;SDS011;67803;41.330;69.282;2023-07-30T08:49:41;9.80;;;3.03;;
78346;SDS011;67803;41.330;69.282;2023-07-30T08:52:12;8.90;;;2.63;;
78346;SDS011;67803;41.330;69.282;2023-07-30T08:54:43;7.43;;;2.65;;
78346;SDS011;67803;41.330;69.282;2023-07-30T08:57:16;6.57;;;2.65;;
78346;SDS011;67803;41.330;69.282;2023-07-30T08:59:53;10.25;;;2.88;;
78346;SDS011;67803;41.330;69.282;2023-07-30T09:02:35;6.60;;;2.72;;
78346;SDS011;67803;41.330;69.282;2023-07-30T09:05:08;7.45;;;3.15;;
78346;SDS011;67803;41.330;69.282;2023-07-30T09:07:39;11.20;;;3.28;;
78346;SDS011;67803;41.330;69.282;2023-07-30T09:10:10;10.18;;;3.65;;
78346;SDS011;67803;41.330;69.282;2023-07-30T09:12:40;7.40;;;2.92;;
78346;SDS011;67803;41.330;69.282;2023-07-30T09:15:11;13.77;;;3.20;;
78346;SDS011;67803;41.330;69.282;2023-07-30T09:17:41;10.35;;;3.28;;
78346;SDS011;67803;41.330;69.282;2023-07-30T09:20:12;8.82;;;3.22;;
78346;SDS011;67803;41.330;69.282;2023-07-30T09:22:42;9.02;;;3.20;;
78346;SDS011;67803;41.330;69.282;2023-07-30T09:25:13;10.65;;;3.33;;
78346;SDS011;67803;41.330;69.282;2023-07-30T09:27:52;7.45;;;3.05;;
78346;SDS011;67803;41.330;69.282;2023-07-30T09:30:25;8.15;;;3.40;;
78346;SDS011;67803;41.330;69.282;2023-07-30T09:32:56;7.57;;;3.42;;
78346;SDS011;67803;41.330;69.282;2023-07-30T09:35:27;10.75;;;3.20;;
78346;SDS011;67803;41.330;69.282;2023-07-30T09:38:01;11.75;;;3.50;;
78346;SDS011;67803;41.330;69.282;2023-07-30T09:40:36;8.55;;;3.28;;
78346;SDS011;67803;41.330;69.282;2023-07-30T09:43:08;9.25;;;3.00;;
78346;SDS011;67803;41.330;69.282;2023-07-30T09:45:39;8.00;;;2.67;;
78346;SDS011;67803;41.330;69.282;2023-07-30T09:48:09;4.72;;;2.67;;
78346;SDS011;67803;41.330;69.282;2023-07-30T09:50:40;9.25;;;2.92;;
78346;SDS011;67803;41.330;69.282;2023-07-30T09:53:11;8.10;;;3.40;;
78346;SDS011;67803;41.330;69.282;2023-07-30T09:55:43;7.30;;;2.72;;
78346;SDS011;67803;41.330;69.282;2023-07-30T09:58:14;8.05;;;2.50;;
78346;SDS011;67803;41.330;69.282;2023-07-30T10:00:44;6.88;;;2.90;;
78346;SDS011;67803;41.330;69.282;2023-07-30T10:03:17;11.07;;;3.30;;
78346;SDS011;67803;41.330;69.282;2023-07-30T10:05:48;25.38;;;4.30;;
78346;SDS011;67803;41.330;69.282;2023-07-30T10:08:20;5.50;;;2.10;;
78346;SDS011;67803;41.330;69.282;2023-07-30T10:10:52;7.22;;;2.50;;
78346;SDS011;67803;41.330;69.282;2023-07-30T10:13:23;8.32;;;3.10;;
78346;SDS011;67803;41.330;69.282;2023-07-30T10:15:54;5.63;;;2.60;;
78346;SDS011;67803;41.330;69.282;2023-07-30T10:18:37;7.95;;;2.90;;
78346;SDS011;67803;41.330;69.282;2023-07-30T10:21:09;6.95;;;2.60;;
78346;SDS011;67803;41.330;69.282;2023-07-30T10:23:47;4.72;;;2.53;;
78346;SDS011;67803;41.330;69.282;2023-07-30T10:26:25;7.32;;;2.50;;
78346;SDS011;67803;41.330;69.282;2023-07-30T10:31:43;7.22;;;2.60;;
78346;SDS011;67803;41.330;69.282;2023-07-30T10:34:13;6.43;;;2.60;;
78346;SDS011;67803;41.330;69.282;2023-07-30T10:36:45;5.60;;;2.63;;
78346;SDS011;67803;41.330;69.282;2023-07-30T10:39:19;6.05;;;2.30;;
78346;SDS011;67803;41.330;69.282;2023-07-30T10:41:51;4.88;;;2.38;;
78346;SDS011;67803;41.330;69.282;2023-07-30T10:44:26;4.03;;;2.30;;
78346;SDS011;67803;41.330;69.282;2023-07-30T10:46:57;9.77;;;2.70;;
78346;SDS011;67803;41.330;69.282;2023-07-30T10:49:28;5.10;;;1.98;;
78346;SDS011;67803;41.330;69.282;2023-07-30T10:51:59;11.27;;;2.75;;
78346;SDS011;67803;41.330;69.282;2023-07-30T10:54:33;6.32;;;2.20;;
78346;SDS011;67803;41.330;69.282;2023-07-30T10:57:04;8.15;;;2.55;;
78346;SDS011;67803;41.330;69.282;2023-07-30T10:59:35;12.20;;;2.55;;
78346;SDS011;67803;41.330;69.282;2023-07-30T11:02:09;8.02;;;2.85;;
78346;SDS011;67803;41.330;69.282;2023-07-30T11:04:42;8.48;;;2.40;;
78346;SDS011;67803;41.330;69.282;2023-07-30T11:07:16;6.22;;;2.30;;
78346;SDS011;67803;41.330;69.282;2023-07-30T11:09:47;7.55;;;2.53;;
78346;SDS011;67803;41.330;69.282;2023-07-30T11:12:28;7.95;;;2.30;;
78346;SDS011;67803;41.330;69.282;2023-07-30T11:15:02;29.13;;;4.50;;
78346;SDS011;67803;41.330;69.282;2023-07-30T11:17:32;11.43;;;3.15;;
78346;SDS011;67803;41.330;69.282;2023-07-30T11:20:03;7.35;;;2.78;;
78346;SDS011;67803;41.330;69.282;2023-07-30T11:22:35;9.25;;;2.58;;
78346;SDS011;67803;41.330;69.282;2023-07-30T11:25:15;3.72;;;2.40;;
78346;SDS011;67803;41.330;69.282;2023-07-30T11:27:49;8.77;;;2.70;;
78346;SDS011;67803;41.330;69.282;2023-07-30T11:30:20;5.57;;;2.63;;
78346;SDS011;67803;41.330;69.282;2023-07-30T11:32:51;5.03;;;2.30;;
78346;SDS011;67803;41.330;69.282;2023-07-30T11:35:21;11.20;;;3.35;;
78346;SDS011;67803;41.330;69.282;2023-07-30T11:37:52;7.47;;;2.65;;
78346;SDS011;67803;41.330;69.282;2023-07-30T11:40:22;10.50;;;2.95;;
78346;SDS011;67803;41.330;69.282;2023-07-30T11:42:53;9.43;;;2.47;;
78346;SDS011;67803;41.330;69.282;2023-07-30T11:45:23;7.78;;;2.88;;
78346;SDS011;67803;41.330;69.282;2023-07-30T11:47:54;5.40;;;2.13;;
78346;SDS011;67803;41.330;69.282;2023-07-30T11:50:48;7.93;;;2.30;;
78346;SDS011;67803;41.330;69.282;2023-07-30T11:53:19;5.80;;;2.50;;
78346;SDS011;67803;41.330;69.282;2023-07-30T11:55:49;7.68;;;2.63;;
78346;SDS011;67803;41.330;69.282;2023-07-30T11:58:19;8.32;;;2.92;;
78346;SDS011;67803;41.330;69.282;2023-07-30T12:00:50;9.52;;;2.92;;
78346;SDS011;67803;41.330;69.282;2023-07-30T12:03:20;5.65;;;2.45;;
78346;SDS011;67803;41.330;69.282;2023-07-30T12:05:51;5.38;;;2.60;;
78346;SDS011;67803;41.330;69.282;2023-07-30T12:08:25;8.65;;;2.50;;
78346;SDS011;67803;41.330;69.282;2023-07-30T12:10:55;7.00;;;2.75;;
78346;SDS011;67803;41.330;69.282;2023-07-30T12:13:27;13.93;;;2.80;;
78346;SDS011;67803;41.330;69.282;2023-07-30T12:15:57;7.35;;;2.58;;
78346;SDS011;67803;41.330;69.282;2023-07-30T12:18:28;11.57;;;2.92;;
78346;SDS011;67803;41.330;69.282;2023-07-30T12:20:59;6.72;;;2.45;;
78346;SDS011;67803;41.330;69.282;2023-07-30T12:23:29;9.85;;;2.90;;
78346;SDS011;67803;41.330;69.282;2023-07-30T12:26:00;9.70;;;3.35;;
78346;SDS011;67803;41.330;69.282;2023-07-30T12:28:32;7.75;;;2.60;;
78346;SDS011;67803;41.330;69.282;2023-07-30T12:31:03;7.93;;;3.25;;
78346;SDS011;67803;41.330;69.282;2023-07-30T12:33:33;7.57;;;2.70;;
78346;SDS011;67803;41.330;69.282;2023-07-30T12:36:04;7.03;;;2.50;;
78346;SDS011;67803;41.330;69.282;2023-07-30T12:38:34;8.57;;;3.05;;
78346;SDS011;67803;41.330;69.282;2023-07-30T12:41:05;7.85;;;2.65;;
78346;SDS011;67803;41.330;69.282;2023-07-30T12:43:35;7.57;;;2.70;;
78346;SDS011;67803;41.330;69.282;2023-07-30T12:46:06;10.27;;;3.00;;
78346;SDS011;67803;41.330;69.282;2023-07-30T12:48:36;6.90;;;2.60;;
78346;SDS011;67803;41.330;69.282;2023-07-30T12:51:07;7.63;;;2.63;;
78346;SDS011;67803;41.330;69.282;2023-07-30T12:53:37;7.63;;;2.90;;
78346;SDS011;67803;41.330;69.282;2023-07-30T12:56:08;16.67;;;2.78;;
78346;SDS011;67803;41.330;69.282;2023-07-30T12:58:38;16.75;;;3.40;;
78346;SDS011;67803;41.330;69.282;2023-07-30T13:01:10;9.98;;;2.42;;
78346;SDS011;67803;41.330;69.282;2023-07-30T13:03:40;6.10;;;2.45;;
78346;SDS011;67803;41.330;69.282;2023-07-30T13:06:15;8.07;;;2.40;;
78346;SDS011;67803;41.330;69.282;2023-07-30T13:08:45;10.25;;;2.92;;
78346;SDS011;67803;41.330;69.282;2023-07-30T13:11:16;8.55;;;3.17;;
78346;SDS011;67803;41.330;69.282;2023-07-30T13:13:46;12.05;;;3.03;;
78346;SDS011;67803;41.330;69.282;2023-07-30T13:16:17;9.25;;;3.15;;
78346;SDS011;67803;41.330;69.282;2023-07-30T13:18:47;8.32;;;3.80;;
78346;SDS011;67803;41.330;69.282;2023-07-30T13:21:18;5.38;;;2.58;;
78346;SDS011;67803;41.330;69.282;2023-07-30T13:23:48;14.05;;;3.80;;
78346;SDS011;67803;41.330;69.282;2023-07-30T13:26:18;8.38;;;3.25;;
78346;SDS011;67803;41.330;69.282;2023-07-30T13:28:49;9.57;;;2.83;;
78346;SDS011;67803;41.330;69.282;2023-07-30T13:31:19;9.05;;;3.17;;
78346;SDS011;67803;41.330;69.282;2023-07-30T13:33:50;7.38;;;3.20;;
78346;SDS011;67803;41.330;69.282;2023-07-30T13:36:21;7.95;;;2.92;;
78346;SDS011;67803;41.330;69.282;2023-07-30T13:38:51;8.23;;;3.10;;
78346;SDS011;67803;41.330;69.282;2023-07-30T13:41:22;12.65;;;5.40;;
78346;SDS011;67803;41.330;69.282;2023-07-30T13:43:52;11.75;;;4.90;;
78346;SDS011;67803;41.330;69.282;2023-07-30T13:46:23;10.98;;;6.20;;
78346;SDS011;67803;41.330;69.282;2023-07-30T13:48:53;8.65;;;4.03;;
78346;SDS011;67803;41.330;69.282;2023-07-30T13:51:24;10.18;;;4.60;;
78346;SDS011;67803;41.330;69.282;2023-07-30T13:53:54;10.98;;;4.80;;
78346;SDS011;67803;41.330;69.282;2023-07-30T13:56:25;9.05;;;3.40;;
78346;SDS011;67803;41.330;69.282;2023-07-30T13:58:56;9.10;;;3.22;;
78346;SDS011;67803;41.330;69.282;2023-07-30T14:01:27;6.97;;;3.50;;
78346;SDS011;67803;41.330;69.282;2023-07-30T14:03:58;12.02;;;3.55;;
78346;SDS011;67803;41.330;69.282;2023-07-30T14:06:28;10.80;;;3.50;;
78346;SDS011;67803;41.330;69.282;2023-07-30T14:08:59;7.07;;;3.40;;
78346;SDS011;67803;41.330;69.282;2023-07-30T14:11:29;8.77;;;4.00;;
78346;SDS011;67803;41.330;69.282;2023-07-30T14:14:00;7.78;;;4.20;;
78346;SDS011;67803;41.330;69.282;2023-07-30T14:16:31;8.48;;;3.92;;
78346;SDS011;67803;41.330;69.282;2023-07-30T14:19:01;7.35;;;3.25;;
78346;SDS011;67803;41.330;69.282;2023-07-30T14:21:32;9.23;;;3.53;;
78346;SDS011;67803;41.330;69.282;2023-07-30T14:24:02;10.10;;;3.15;;
78346;SDS011;67803;41.330;69.282;2023-07-30T14:26:33;10.65;;;3.08;;
78346;SDS011;67803;41.330;69.282;2023-07-30T14:29:03;13.00;;;3.92;;
78346;SDS011;67803;41.330;69.282;2023-07-30T14:31:34;12.95;;;3.92;;
78346;SDS011;67803;41.330;69.282;2023-07-30T14:34:04;16.17;;;4.53;;
78346;SDS011;67803;41.330;69.282;2023-07-30T14:36:35;10.38;;;4.40;;
78346;SDS011;67803;41.330;69.282;2023-07-30T14:39:05;14.15;;;4.65;;
78346;SDS011;67803;41.330;69.282;2023-07-30T14:41:36;13.32;;;4.40;;
78346;SDS011;67803;41.330;69.282;2023-07-30T14:44:06;10.57;;;4.80;;
78346;SDS011;67803;41.330;69.282;2023-07-30T14:46:37;17.05;;;4.63;;
78346;SDS011;67803;41.330;69.282;2023-07-30T14:49:07;10.15;;;4.03;;
78346;SDS011;67803;41.330;69.282;2023-07-30T14:51:38;12.35;;;3.92;;
78346;SDS011;67803;41.330;69.282;2023-07-30T14:54:08;11.60;;;4.07;;
78346;SDS011;67803;41.330;69.282;2023-07-30T14:56:40;11.05;;;3.90;;